Time;durP1;ratioP1;P1;durP2;ratioP2;P2;SDS_P1;SDS_P2;PMS_P1;PMS_P2;Temp;Humidity;BMP_temperature;BMP_pressure;BME280_temperature;BME280_humidity;BME280_pressure;Samples;Min_cycle;Max_cycle;Signal;HPM_P1;HPM_P2
2021/05/09 00:01:43;;;;;;;6.95;4.20;;;;;;;;;;6184912;23;20005;-60
2021/05/09 00:04:10;;;;;;;8.55;4.25;;;;;;;;;;6184926;23;20005;-60
2021/05/09 00:06:37;;;;;;;5.65;4.57;;;;;;;;;;6184731;23;20063;-61
2021/05/09 00:09:04;;;;;;;10.73;5.20;;;;;;;;;;6184886;23;20012;-61
2021/05/09 00:11:31;;;;;;;7.65;5.40;;;;;;;;;;6184836;23;20329;-61
2021/05/09 00:13:58;;;;;;;11.00;5.32;;;;;;;;;;6185911;23;20021;-60
2021/05/09 00:16:24;;;;;;;8.30;5.90;;;;;;;;;;6184816;23;20088;-61
2021/05/09 00:18:51;;;;;;;7.93;5.88;;;;;;;;;;6185490;23;20080;-61
2021/05/09 00:21:18;;;;;;;7.95;4.55;;;;;;;;;;6186751;23;20328;-60
2021/05/09 00:23:45;;;;;;;7.03;5.15;;;;;;;;;;6186755;23;20008;-61
2021/05/09 00:26:12;;;;;;;9.13;4.88;;;;;;;;;;6186469;23;20051;-61
2021/05/09 00:28:38;;;;;;;8.70;5.28;;;;;;;;;;6186701;23;20008;-60
2021/05/09 00:31:05;;;;;;;7.25;4.95;;;;;;;;;;6186561;23;20376;-60
2021/05/09 00:33:32;;;;;;;7.32;5.03;;;;;;;;;;6186383;23;20059;-61
2021/05/09 00:35:59;;;;;;;15.90;5.43;;;;;;;;;;6186530;23;20004;-61
2021/05/09 00:38:25;;;;;;;6.82;5.45;;;;;;;;;;6186387;23;20001;-61
2021/05/09 00:40:54;;;;;;;8.23;4.57;;;;;;;;;;6186556;23;20005;-60
2021/05/09 00:43:21;;;;;;;6.45;4.85;;;;;;;;;;6186397;23;20005;-61
2021/05/09 00:45:48;;;;;;;11.37;4.97;;;;;;;;;;6186280;23;20012;-61
2021/05/09 00:48:16;;;;;;;6.20;5.03;;;;;;;;;;6186567;23;20009;-60
2021/05/09 00:50:43;;;;;;;10.57;5.10;;;;;;;;;;6186330;23;20005;-61
2021/05/09 00:53:12;;;;;;;12.63;5.50;;;;;;;;;;6186567;23;20072;-60
2021/05/09 00:55:39;;;;;;;10.00;5.70;;;;;;;;;;6186604;23;20016;-60
2021/05/09 00:58:09;;;;;;;6.73;4.80;;;;;;;;;;6186446;23;20066;-60
2021/05/09 01:00:37;;;;;;;8.90;6.43;;;;;;;;;;6186143;23;20032;-60
2021/05/09 01:03:09;;;;;;;9.30;6.33;;;;;;;;;;6186157;23;20009;-60
2021/05/09 01:05:36;;;;;;;11.53;6.93;;;;;;;;;;6186294;23;20024;-60
2021/05/09 01:08:04;;;;;;;10.10;7.07;;;;;;;;;;6186063;23;20008;-61
2021/05/09 01:10:31;;;;;;;10.93;7.20;;;;;;;;;;6186105;23;20013;-61
2021/05/09 01:12:58;;;;;;;11.13;7.23;;;;;;;;;;6186075;23;20028;-60
2021/05/09 01:15:25;;;;;;;12.03;6.63;;;;;;;;;;6187261;22;20024;-61
2021/05/09 01:17:52;;;;;;;8.73;5.47;;;;;;;;;;6186027;23;20012;-61
2021/05/09 01:20:19;;;;;;;7.23;4.63;;;;;;;;;;6186055;23;20008;-61
2021/05/09 01:22:45;;;;;;;7.00;4.50;;;;;;;;;;6186292;23;19997;-60
2021/05/09 01:25:13;;;;;;;15.03;5.70;;;;;;;;;;6185951;23;20088;-61
2021/05/09 01:27:40;;;;;;;10.13;5.40;;;;;;;;;;6186162;23;20001;-60
2021/05/09 01:30:10;;;;;;;9.27;4.93;;;;;;;;;;6185728;23;20433;-60
2021/05/09 01:32:37;;;;;;;6.73;4.63;;;;;;;;;;6185981;23;20005;-61
2021/05/09 01:35:04;;;;;;;7.47;4.60;;;;;;;;;;6186011;23;20078;-60
2021/05/09 01:37:31;;;;;;;9.33;5.40;;;;;;;;;;6185912;23;20341;-61
2021/05/09 01:39:58;;;;;;;10.67;5.87;;;;;;;;;;6185717;23;20036;-61
2021/05/09 01:42:25;;;;;;;9.30;5.47;;;;;;;;;;6185891;23;20012;-61
2021/05/09 01:44:52;;;;;;;10.77;4.77;;;;;;;;;;6185769;23;20008;-61
2021/05/09 01:47:19;;;;;;;8.10;5.83;;;;;;;;;;6185803;23;20001;-59
2021/05/09 01:49:46;;;;;;;12.67;5.73;;;;;;;;;;6185700;23;20084;-60
2021/05/09 01:52:12;;;;;;;9.73;5.83;;;;;;;;;;6185871;23;20009;-61
2021/05/09 01:54:39;;;;;;;8.73;6.23;;;;;;;;;;6185851;23;20008;-61
2021/05/09 01:57:06;;;;;;;9.93;6.07;;;;;;;;;;6185891;23;20001;-61
2021/05/09 01:59:33;;;;;;;9.47;5.57;;;;;;;;;;6185616;23;20024;-61
2021/05/09 02:02:00;;;;;;;7.10;5.17;;;;;;;;;;6185838;23;19997;-61
2021/05/09 02:04:27;;;;;;;8.90;5.03;;;;;;;;;;6185682;23;20036;-61
2021/05/09 02:06:54;;;;;;;7.30;5.20;;;;;;;;;;6185558;23;20001;-61
2021/05/09 02:09:21;;;;;;;7.60;5.60;;;;;;;;;;6185774;23;20080;-61
2021/05/09 02:11:47;;;;;;;8.30;6.03;;;;;;;;;;6185563;23;20340;-61
2021/05/09 02:14:14;;;;;;;10.07;6.20;;;;;;;;;;6186551;23;20360;-61
2021/05/09 02:16:41;;;;;;;12.50;5.43;;;;;;;;;;6185722;23;20004;-61
2021/05/09 02:19:08;;;;;;;7.23;5.63;;;;;;;;;;6185288;23;20013;-61
2021/05/09 02:21:34;;;;;;;9.97;5.83;;;;;;;;;;6185628;23;20009;-60
2021/05/09 02:24:01;;;;;;;9.03;5.93;;;;;;;;;;6185364;23;20181;-61
2021/05/09 02:26:28;;;;;;;9.40;5.97;;;;;;;;;;6185369;23;20063;-61
2021/05/09 02:28:55;;;;;;;9.23;5.57;;;;;;;;;;6185587;23;20076;-60
2021/05/09 02:31:21;;;;;;;13.20;5.87;;;;;;;;;;6185365;23;20432;-61
2021/05/09 02:33:48;;;;;;;8.33;5.53;;;;;;;;;;6185563;23;20036;-60
2021/05/09 02:36:15;;;;;;;8.53;5.77;;;;;;;;;;6185378;23;20023;-60
2021/05/09 02:38:42;;;;;;;8.90;5.67;;;;;;;;;;6185204;23;20059;-61
2021/05/09 02:41:08;;;;;;;7.93;5.83;;;;;;;;;;6184974;23;20020;-61
2021/05/09 02:43:35;;;;;;;11.87;5.80;;;;;;;;;;6185283;23;19997;-60
2021/05/09 02:46:02;;;;;;;8.87;5.43;;;;;;;;;;6185177;23;20455;-60
2021/05/09 02:48:30;;;;;;;8.93;5.10;;;;;;;;;;6185207;23;20001;-62
2021/05/09 02:50:57;;;;;;;10.23;6.00;;;;;;;;;;6185196;23;20029;-61
2021/05/09 02:53:24;;;;;;;8.53;5.90;;;;;;;;;;6185240;23;20012;-61
2021/05/09 02:55:51;;;;;;;8.80;5.33;;;;;;;;;;6185296;23;20012;-62
2021/05/09 02:58:17;;;;;;;10.47;5.20;;;;;;;;;;6185389;23;19997;-62
2021/05/09 03:00:44;;;;;;;9.10;5.83;;;;;;;;;;6185035;23;20020;-62
2021/05/09 03:03:11;;;;;;;6.97;5.00;;;;;;;;;;6185152;23;20369;-61
2021/05/09 03:05:38;;;;;;;10.80;5.63;;;;;;;;;;6185057;23;20080;-61
2021/05/09 03:08:05;;;;;;;10.97;6.13;;;;;;;;;;6184986;23;20001;-62
2021/05/09 03:10:33;;;;;;;10.30;6.33;;;;;;;;;;6185107;23;20096;-61
2021/05/09 03:13:08;;;;;;;8.23;5.90;;;;;;;;;;6184876;23;20107;-61
2021/05/09 03:15:42;;;;;;;8.13;5.50;;;;;;;;;;6186263;23;20017;-61
2021/05/09 03:18:08;;;;;;;9.67;5.77;;;;;;;;;;6185460;23;20328;-61
2021/05/09 03:20:36;;;;;;;9.30;5.93;;;;;;;;;;6185173;23;20023;-61
2021/05/09 03:23:06;;;;;;;8.70;5.60;;;;;;;;;;6185213;23;20036;-61
2021/05/09 03:25:33;;;;;;;8.83;6.10;;;;;;;;;;6184913;23;20001;-61
2021/05/09 03:28:00;;;;;;;7.60;5.53;;;;;;;;;;6185230;23;20072;-61
2021/05/09 03:30:27;;;;;;;10.37;6.07;;;;;;;;;;6185142;23;20009;-61
2021/05/09 03:32:54;;;;;;;10.80;6.17;;;;;;;;;;6184954;23;20036;-62
2021/05/09 03:35:21;;;;;;;8.77;5.70;;;;;;;;;;6185239;23;20005;-61
2021/05/09 03:37:48;;;;;;;8.87;5.83;;;;;;;;;;6185040;23;20005;-62
2021/05/09 03:40:15;;;;;;;7.90;5.23;;;;;;;;;;6184968;23;20023;-61
2021/05/09 03:42:42;;;;;;;10.63;5.63;;;;;;;;;;6185193;23;20068;-62
2021/05/09 03:45:09;;;;;;;15.03;6.53;;;;;;;;;;6185135;23;20005;-61
2021/05/09 03:47:38;;;;;;;8.10;5.80;;;;;;;;;;6184945;23;20088;-61
2021/05/09 03:50:05;;;;;;;9.63;6.27;;;;;;;;;;6185212;23;20005;-61
2021/05/09 03:52:32;;;;;;;10.23;6.50;;;;;;;;;;6185512;23;20357;-61
2021/05/09 03:54:59;;;;;;;12.77;6.27;;;;;;;;;;6186829;23;20080;-61
2021/05/09 03:57:25;;;;;;;13.90;7.07;;;;;;;;;;6186947;23;20012;-60
2021/05/09 03:59:53;;;;;;;8.10;6.30;;;;;;;;;;6186743;23;20019;-61
2021/05/09 04:02:20;;;;;;;11.67;6.63;;;;;;;;;;6186863;23;20005;-61
2021/05/09 04:04:47;;;;;;;10.20;6.60;;;;;;;;;;6186896;23;20051;-62
2021/05/09 04:07:14;;;;;;;12.80;5.67;;;;;;;;;;6186898;23;19997;-61
2021/05/09 04:09:41;;;;;;;8.50;6.20;;;;;;;;;;6186760;23;20475;-61
2021/05/09 04:12:08;;;;;;;11.40;6.43;;;;;;;;;;6186798;23;20321;-62
2021/05/09 04:14:41;;;;;;;8.27;6.07;;;;;;;;;;6187774;23;20044;-61
2021/05/09 04:17:08;;;;;;;9.03;5.50;;;;;;;;;;6186660;23;20008;-61
2021/05/09 04:19:35;;;;;;;11.70;6.17;;;;;;;;;;6186757;23;20067;-61
2021/05/09 04:22:02;;;;;;;9.17;6.67;;;;;;;;;;6186899;23;20067;-62
2021/05/09 04:24:29;;;;;;;10.70;6.50;;;;;;;;;;6186749;23;19997;-61
2021/05/09 04:26:56;;;;;;;13.17;7.47;;;;;;;;;;6186648;23;20090;-61
2021/05/09 04:29:22;;;;;;;9.67;5.83;;;;;;;;;;6186751;23;20380;-61
2021/05/09 04:31:49;;;;;;;11.27;6.20;;;;;;;;;;6186768;23;20008;-61
2021/05/09 04:34:16;;;;;;;13.20;7.17;;;;;;;;;;6186405;23;20005;-61
2021/05/09 04:36:43;;;;;;;11.40;6.23;;;;;;;;;;6186551;23;20417;-61
2021/05/09 04:39:09;;;;;;;10.60;6.60;;;;;;;;;;6186352;23;20093;-62
2021/05/09 04:41:36;;;;;;;12.30;6.90;;;;;;;;;;6186382;23;20177;-61
2021/05/09 04:44:03;;;;;;;13.53;7.03;;;;;;;;;;6186457;23;20011;-61
2021/05/09 04:46:30;;;;;;;9.17;6.77;;;;;;;;;;6186361;23;20016;-62
2021/05/09 04:48:57;;;;;;;10.37;7.00;;;;;;;;;;6186386;23;20036;-61
2021/05/09 04:51:24;;;;;;;10.83;6.33;;;;;;;;;;6186354;23;20001;-61
2021/05/09 04:53:50;;;;;;;11.40;6.77;;;;;;;;;;6186186;23;20093;-61
2021/05/09 04:56:18;;;;;;;9.90;6.13;;;;;;;;;;6186681;23;20001;-61
2021/05/09 04:58:45;;;;;;;10.27;6.33;;;;;;;;;;6186378;23;20005;-61
2021/05/09 05:01:12;;;;;;;8.30;6.10;;;;;;;;;;6186240;23;20024;-61
2021/05/09 05:03:40;;;;;;;9.73;6.40;;;;;;;;;;6185931;23;20051;-61
2021/05/09 05:06:07;;;;;;;8.20;5.93;;;;;;;;;;6186054;23;20001;-61
2021/05/09 05:08:34;;;;;;;8.57;5.47;;;;;;;;;;6186209;23;20031;-61
2021/05/09 05:11:02;;;;;;;14.00;7.10;;;;;;;;;;6186475;23;20009;-61
2021/05/09 05:13:32;;;;;;;9.07;6.83;;;;;;;;;;6186065;23;20016;-61
2021/05/09 05:15:59;;;;;;;9.30;6.57;;;;;;;;;;6187438;23;20020;-61
2021/05/09 05:18:26;;;;;;;9.40;6.17;;;;;;;;;;6186321;23;20005;-61
2021/05/09 05:20:55;;;;;;;12.40;6.40;;;;;;;;;;6185966;23;20017;-61
2021/05/09 05:23:22;;;;;;;9.93;6.57;;;;;;;;;;6186053;23;20321;-61
2021/05/09 05:25:50;;;;;;;9.97;7.00;;;;;;;;;;6186176;23;20039;-61
2021/05/09 05:28:16;;;;;;;8.43;5.77;;;;;;;;;;6186058;23;20075;-61
2021/05/09 05:30:45;;;;;;;8.70;5.90;;;;;;;;;;6186202;23;20033;-61
2021/05/09 05:33:24;;;;;;;11.20;7.33;;;;;;;;;;6186159;23;20017;-61
2021/05/09 05:35:51;;;;;;;10.60;7.00;;;;;;;;;;6185888;23;20001;-61
2021/05/09 05:38:17;;;;;;;9.63;6.43;;;;;;;;;;6186046;23;20011;-61
2021/05/09 05:40:44;;;;;;;9.47;7.07;;;;;;;;;;6185946;23;20009;-61
2021/05/09 05:43:11;;;;;;;9.00;6.23;;;;;;;;;;6185857;23;20330;-61
2021/05/09 05:45:38;;;;;;;11.77;6.33;;;;;;;;;;6185917;23;20051;-61
2021/05/09 05:48:05;;;;;;;9.87;6.77;;;;;;;;;;6185811;23;20075;-61
2021/05/09 05:50:31;;;;;;;9.97;6.20;;;;;;;;;;6185706;23;20056;-61
2021/05/09 05:52:58;;;;;;;9.70;6.43;;;;;;;;;;6185801;23;20008;-61
2021/05/09 05:55:25;;;;;;;11.17;6.43;;;;;;;;;;6185934;23;20465;-62
2021/05/09 05:57:52;;;;;;;8.40;6.30;;;;;;;;;;6185712;23;20001;-62
2021/05/09 06:00:19;;;;;;;8.33;5.10;;;;;;;;;;6185872;23;20036;-62
2021/05/09 06:02:46;;;;;;;8.37;5.50;;;;;;;;;;6185689;23;20005;-61
2021/05/09 06:05:13;;;;;;;9.43;5.87;;;;;;;;;;6185597;23;20004;-61
2021/05/09 06:07:40;;;;;;;9.47;5.80;;;;;;;;;;6185523;23;20072;-62
2021/05/09 06:10:07;;;;;;;8.23;4.97;;;;;;;;;;6185777;23;20084;-61
2021/05/09 06:12:34;;;;;;;9.30;5.40;;;;;;;;;;6185844;23;20001;-61
2021/05/09 06:15:01;;;;;;;7.60;5.53;;;;;;;;;;6186786;23;20436;-61
2021/05/09 06:17:28;;;;;;;8.73;5.83;;;;;;;;;;6185315;23;20063;-61
2021/05/09 06:19:54;;;;;;;10.10;5.00;;;;;;;;;;6185391;23;20088;-61
2021/05/09 06:22:21;;;;;;;8.07;6.00;;;;;;;;;;6185408;23;20040;-61
2021/05/09 06:24:48;;;;;;;9.37;6.03;;;;;;;;;;6185659;23;20005;-62
2021/05/09 06:27:15;;;;;;;8.57;6.33;;;;;;;;;;6185470;23;20009;-62
2021/05/09 06:29:42;;;;;;;9.90;5.80;;;;;;;;;;6185573;23;20076;-61
2021/05/09 06:32:08;;;;;;;9.77;6.47;;;;;;;;;;6185640;23;20001;-61
2021/05/09 06:34:35;;;;;;;7.73;5.77;;;;;;;;;;6185381;23;20005;-61
2021/05/09 06:37:02;;;;;;;8.50;5.50;;;;;;;;;;6185555;23;20354;-61
2021/05/09 06:39:29;;;;;;;8.00;5.63;;;;;;;;;;6185247;23;20075;-61
2021/05/09 06:41:58;;;;;;;13.60;7.00;;;;;;;;;;6185573;23;20005;-61
2021/05/09 06:44:28;;;;;;;7.47;5.40;;;;;;;;;;6185393;23;20081;-61
2021/05/09 06:46:55;;;;;;;11.37;5.40;;;;;;;;;;6185246;23;20001;-61
2021/05/09 06:49:22;;;;;;;11.70;5.77;;;;;;;;;;6185572;23;20005;-61
2021/05/09 06:51:50;;;;;;;8.73;5.67;;;;;;;;;;6185100;23;20424;-61
2021/05/09 06:54:17;;;;;;;11.37;6.73;;;;;;;;;;6185447;23;20356;-61
2021/05/09 06:56:44;;;;;;;10.37;6.53;;;;;;;;;;6185300;23;20012;-61
2021/05/09 06:59:10;;;;;;;10.43;6.03;;;;;;;;;;6185257;23;20033;-61
2021/05/09 07:01:37;;;;;;;7.43;4.97;;;;;;;;;;6185155;23;20063;-61
2021/05/09 07:04:04;;;;;;;7.93;5.47;;;;;;;;;;6185106;23;20001;-61
2021/05/09 07:06:31;;;;;;;10.27;6.60;;;;;;;;;;6185091;23;20060;-61
2021/05/09 07:08:58;;;;;;;9.87;5.60;;;;;;;;;;6185155;23;20314;-61
2021/05/09 07:11:26;;;;;;;7.57;5.70;;;;;;;;;;6185083;23;20424;-61
2021/05/09 07:13:53;;;;;;;10.23;6.73;;;;;;;;;;6185128;23;20001;-61
2021/05/09 07:16:21;;;;;;;8.67;6.33;;;;;;;;;;6183699;23;20411;-61
2021/05/09 07:18:47;;;;;;;8.37;5.97;;;;;;;;;;6185022;23;20005;-61
2021/05/09 07:21:17;;;;;;;9.23;6.73;;;;;;;;;;6185041;23;20333;-61
2021/05/09 07:23:47;;;;;;;8.47;5.77;;;;;;;;;;6185041;23;20029;-61
2021/05/09 07:26:14;;;;;;;7.50;5.57;;;;;;;;;;6185207;23;20024;-61
2021/05/09 07:28:41;;;;;;;8.77;6.53;;;;;;;;;;6186811;23;20012;-61
2021/05/09 07:31:08;;;;;;;9.67;5.83;;;;;;;;;;6187206;23;20005;-61
2021/05/09 07:33:35;;;;;;;12.83;6.67;;;;;;;;;;6187250;23;20008;-61
2021/05/09 07:36:02;;;;;;;10.23;5.97;;;;;;;;;;6187267;23;20001;-61
2021/05/09 07:38:29;;;;;;;8.57;6.17;;;;;;;;;;6187086;23;20005;-61
2021/05/09 07:40:56;;;;;;;10.57;6.43;;;;;;;;;;6187106;23;20013;-61
2021/05/09 07:43:23;;;;;;;10.13;7.63;;;;;;;;;;6187329;23;20005;-61
2021/05/09 07:45:50;;;;;;;9.27;6.23;;;;;;;;;;6187165;23;20072;-61
2021/05/09 07:48:16;;;;;;;13.60;6.00;;;;;;;;;;6187036;23;20005;-61
2021/05/09 07:50:43;;;;;;;9.73;6.40;;;;;;;;;;6186908;23;20033;-61
2021/05/09 07:53:13;;;;;;;11.67;7.40;;;;;;;;;;6187078;23;20451;-61
2021/05/09 07:55:40;;;;;;;10.63;6.00;;;;;;;;;;6186768;23;20005;-61
2021/05/09 07:58:17;;;;;;;7.00;5.40;;;;;;;;;;6186920;23;20012;-62
2021/05/09 08:00:45;;;;;;;10.37;6.07;;;;;;;;;;6160319;23;20455;-61
2021/05/09 08:03:12;;;;;;;8.60;6.37;;;;;;;;;;6186971;23;20071;-61
2021/05/09 08:05:39;;;;;;;12.80;5.43;;;;;;;;;;6186847;23;20008;-61
2021/05/09 08:08:06;;;;;;;8.20;5.53;;;;;;;;;;6186696;23;20023;-61
2021/05/09 08:10:38;;;;;;;11.00;5.17;;;;;;;;;;6186806;23;20008;-61
2021/05/09 08:13:06;;;;;;;8.63;5.60;;;;;;;;;;6186916;23;20085;-61
2021/05/09 08:15:33;;;;;;;11.50;5.80;;;;;;;;;;6187782;23;20028;-61
2021/05/09 08:18:00;;;;;;;9.90;5.13;;;;;;;;;;6186926;23;20072;-61
2021/05/09 08:20:29;;;;;;;9.57;5.67;;;;;;;;;;6186732;23;20016;-61
2021/05/09 08:22:56;;;;;;;7.30;5.63;;;;;;;;;;6186685;23;20001;-61
2021/05/09 08:25:23;;;;;;;10.37;6.60;;;;;;;;;;6186456;23;20381;-61
2021/05/09 08:27:51;;;;;;;8.97;6.30;;;;;;;;;;6186585;23;20001;-61
2021/05/09 08:30:19;;;;;;;9.07;6.53;;;;;;;;;;6186763;23;20009;-61
2021/05/09 08:32:45;;;;;;;10.57;6.67;;;;;;;;;;6186810;23;19997;-61
2021/05/09 08:35:29;;;;;;;11.77;6.40;;;;;;;;;;6186665;23;20321;-61
2021/05/09 08:37:55;;;;;;;11.00;6.67;;;;;;;;;;6186551;23;20012;-61
2021/05/09 08:40:22;;;;;;;10.73;8.70;;;;;;;;;;6185850;23;20035;-61
2021/05/09 08:42:50;;;;;;;10.07;7.13;;;;;;;;;;6186450;23;20028;-61
2021/05/09 08:45:17;;;;;;;10.37;6.70;;;;;;;;;;6186387;23;20087;-61
2021/05/09 08:47:44;;;;;;;11.30;7.20;;;;;;;;;;6186643;23;20009;-61
2021/05/09 08:50:21;;;;;;;9.47;6.60;;;;;;;;;;6186462;23;20009;-61
2021/05/09 08:52:49;;;;;;;9.27;6.23;;;;;;;;;;6186513;23;19997;-61
2021/05/09 08:55:17;;;;;;;8.80;6.50;;;;;;;;;;6186328;23;20016;-61
2021/05/09 08:57:45;;;;;;;9.50;7.00;;;;;;;;;;6186357;23;20005;-61
2021/05/09 09:00:13;;;;;;;11.30;7.37;;;;;;;;;;6186389;23;20009;-61
2021/05/09 09:02:40;;;;;;;10.83;6.97;;;;;;;;;;6186465;23;20416;-61
2021/05/09 09:05:08;;;;;;;11.67;7.67;;;;;;;;;;6186394;23;20001;-61
2021/05/09 09:07:52;;;;;;;9.60;7.10;;;;;;;;;;6186104;23;20097;-61
2021/05/09 09:10:31;;;;;;;11.13;7.63;;;;;;;;;;6186315;23;20024;-61
2021/05/09 09:13:00;;;;;;;9.37;6.70;;;;;;;;;;6186113;23;20001;-61
2021/05/09 09:15:47;;;;;;;9.40;6.50;;;;;;;;;;6187249;22;20147;-61
2021/05/09 09:18:26;;;;;;;9.97;6.87;;;;;;;;;;6186197;23;20005;-61
2021/05/09 09:20:52;;;;;;;8.63;6.47;;;;;;;;;;6186082;23;20149;-61
2021/05/09 09:23:19;;;;;;;10.00;5.70;;;;;;;;;;6185940;23;20009;-61
2021/05/09 09:25:46;;;;;;;9.30;6.37;;;;;;;;;;6186123;23;20005;-61
2021/05/09 09:28:13;;;;;;;10.23;6.83;;;;;;;;;;6186059;23;20341;-61
2021/05/09 09:30:53;;;;;;;9.30;6.13;;;;;;;;;;6186187;23;20029;-61
2021/05/09 09:33:21;;;;;;;10.43;7.23;;;;;;;;;;6185928;23;20047;-61
2021/05/09 09:35:54;;;;;;;9.77;6.87;;;;;;;;;;6186141;23;20005;-61
2021/05/09 09:38:25;;;;;;;10.43;7.37;;;;;;;;;;6186137;23;20001;-61
2021/05/09 09:41:10;;;;;;;14.90;6.73;;;;;;;;;;6185791;23;20017;-61
2021/05/09 09:43:37;;;;;;;13.38;7.70;;;;;;;;;;6185858;23;20001;-61
2021/05/09 09:46:04;;;;;;;10.63;7.73;;;;;;;;;;6185853;23;20059;-61
2021/05/09 09:48:41;;;;;;;11.43;7.47;;;;;;;;;;6186122;23;20012;-61
2021/05/09 09:51:09;;;;;;;10.00;6.10;;;;;;;;;;6186036;23;20009;-67
2021/05/09 09:53:39;;;;;;;11.37;7.00;;;;;;;;;;6185986;23;20005;-67
2021/05/09 09:56:22;;;;;;;9.43;6.57;;;;;;;;;;6185776;23;20005;-67
2021/05/09 09:58:52;;;;;;;10.60;6.07;;;;;;;;;;6185866;23;20067;-67
2021/05/09 10:01:21;;;;;;;8.73;5.97;;;;;;;;;;6185741;23;20029;-66
2021/05/09 10:03:48;;;;;;;10.30;7.20;;;;;;;;;;6185825;23;20046;-66
2021/05/09 10:06:16;;;;;;;8.40;5.90;;;;;;;;;;6185539;23;20009;-67
2021/05/09 10:08:43;;;;;;;12.17;7.03;;;;;;;;;;6185831;23;20488;-66
2021/05/09 10:11:10;;;;;;;10.10;6.70;;;;;;;;;;6159542;23;20005;-66
2021/05/09 10:13:37;;;;;;;10.87;6.93;;;;;;;;;;6185261;23;20005;-66
2021/05/09 10:16:04;;;;;;;10.47;7.63;;;;;;;;;;6186477;23;20499;-66
2021/05/09 10:18:32;;;;;;;12.80;7.93;;;;;;;;;;6185433;23;20005;-66
2021/05/09 10:20:59;;;;;;;8.17;6.13;;;;;;;;;;6185237;23;20024;-66
2021/05/09 10:23:26;;;;;;;11.40;7.13;;;;;;;;;;6185613;23;20005;-66
2021/05/09 10:25:57;;;;;;;11.67;7.23;;;;;;;;;;6185248;23;20032;-67
2021/05/09 10:28:25;;;;;;;10.80;7.30;;;;;;;;;;6185590;23;20056;-67
2021/05/09 10:30:56;;;;;;;12.83;7.67;;;;;;;;;;6185444;23;20008;-66
2021/05/09 10:33:41;;;;;;;9.43;6.43;;;;;;;;;;6185438;23;20015;-66
2021/05/09 10:36:31;;;;;;;9.40;7.17;;;;;;;;;;6185582;23;20008;-66
2021/05/09 10:39:11;;;;;;;11.27;7.60;;;;;;;;;;6185224;23;20324;-66
2021/05/09 10:41:59;;;;;;;10.87;6.70;;;;;;;;;;6185824;23;20066;-66
2021/05/09 10:44:38;;;;;;;11.47;7.77;;;;;;;;;;6161363;23;20055;-66
2021/05/09 10:47:06;;;;;;;9.27;6.43;;;;;;;;;;6185269;23;20028;-66
2021/05/09 10:49:33;;;;;;;8.90;7.07;;;;;;;;;;6185404;23;20005;-66
2021/05/09 10:52:19;;;;;;;8.40;6.37;;;;;;;;;;6185486;23;19997;-66
2021/05/09 10:54:46;;;;;;;10.73;7.47;;;;;;;;;;6185101;23;20328;-66
2021/05/09 10:57:32;;;;;;;9.87;6.73;;;;;;;;;;6185280;23;20005;-66
2021/05/09 11:00:00;;;;;;;11.93;7.33;;;;;;;;;;6185279;23;20008;-66
2021/05/09 11:02:30;;;;;;;12.43;7.50;;;;;;;;;;6185033;23;20483;-66
2021/05/09 11:04:56;;;;;;;8.90;6.50;;;;;;;;;;6185126;23;20332;-66
2021/05/09 11:07:42;;;;;;;9.97;6.87;;;;;;;;;;6185314;23;19997;-66
2021/05/09 11:10:37;;;;;;;10.70;7.87;;;;;;;;;;6185387;23;20012;-66
2021/05/09 11:13:05;;;;;;;10.07;7.15;;;;;;;;;;6185279;23;20001;-66
2021/05/09 11:15:32;;;;;;;8.97;6.60;;;;;;;;;;6186233;22;20017;-66
2021/05/09 11:17:59;;;;;;;11.80;8.00;;;;;;;;;;6185364;23;20329;-67
2021/05/09 11:20:26;;;;;;;11.97;8.20;;;;;;;;;;6185185;23;20019;-66
2021/05/09 11:22:59;;;;;;;11.57;8.67;;;;;;;;;;6185121;23;20035;-67
2021/05/09 11:25:33;;;;;;;12.43;6.93;;;;;;;;;;6185206;23;20013;-66
2021/05/09 11:28:00;;;;;;;11.23;7.97;;;;;;;;;;6185007;23;19997;-66
2021/05/09 11:30:34;;;;;;;11.13;7.40;;;;;;;;;;6184982;23;20014;-66
2021/05/09 11:33:01;;;;;;;10.07;7.80;;;;;;;;;;6185120;23;19997;-66
2021/05/09 11:35:37;;;;;;;14.83;8.73;;;;;;;;;;6184992;23;20013;-66
2021/05/09 11:38:04;;;;;;;12.30;8.50;;;;;;;;;;6185165;23;20056;-66
2021/05/09 11:40:31;;;;;;;14.13;8.30;;;;;;;;;;6184857;23;20013;-66
2021/05/09 11:42:58;;;;;;;14.17;8.77;;;;;;;;;;6184895;23;20011;-67
2021/05/09 11:45:26;;;;;;;10.83;7.93;;;;;;;;;;6184993;23;20002;-66
2021/05/09 11:47:52;;;;;;;11.27;8.03;;;;;;;;;;6185165;23;20001;-66
2021/05/09 11:50:19;;;;;;;9.47;7.37;;;;;;;;;;6185162;23;20064;-66
2021/05/09 11:52:46;;;;;;;13.93;8.47;;;;;;;;;;6184957;23;20329;-66
2021/05/09 11:55:14;;;;;;;9.83;7.50;;;;;;;;;;6185000;23;20064;-66
2021/05/09 11:57:41;;;;;;;11.63;7.60;;;;;;;;;;6184840;23;20005;-66
2021/05/09 12:00:18;;;;;;;12.63;7.67;;;;;;;;;;6185027;23;20020;-66
2021/05/09 12:02:48;;;;;;;17.73;8.43;;;;;;;;;;6184931;23;20328;-66
2021/05/09 12:05:16;;;;;;;8.97;7.40;;;;;;;;;;6185034;23;20008;-66
2021/05/09 12:07:43;;;;;;;12.20;8.57;;;;;;;;;;6184838;23;20072;-66
2021/05/09 12:10:12;;;;;;;11.73;8.00;;;;;;;;;;6184894;23;20293;-67
2021/05/09 12:12:40;;;;;;;11.30;7.63;;;;;;;;;;6184896;23;20005;-66
2021/05/09 12:15:16;;;;;;;12.87;8.10;;;;;;;;;;6187688;23;20040;-67
2021/05/09 12:17:47;;;;;;;17.00;9.20;;;;;;;;;;6186766;23;20100;-67
2021/05/09 12:20:29;;;;;;;14.77;9.17;;;;;;;;;;6186585;23;20096;-66
2021/05/09 12:22:57;;;;;;;14.00;7.00;;;;;;;;;;6186820;23;20001;-66
2021/05/09 12:25:50;;;;;;;12.33;7.40;;;;;;;;;;6186611;23;20016;-67
2021/05/09 12:28:18;;;;;;;18.17;10.37;;;;;;;;;;6180598;23;20001;-67
2021/05/09 12:30:46;;;;;;;15.10;9.30;;;;;;;;;;6186732;23;20075;-67
2021/05/09 12:33:24;;;;;;;13.03;9.13;;;;;;;;;;6186575;23;20000;-67
2021/05/09 12:35:54;;;;;;;13.43;8.67;;;;;;;;;;6186664;23;20440;-67
2021/05/09 12:38:33;;;;;;;13.30;9.07;;;;;;;;;;6187183;23;20005;-66
2021/05/09 12:41:04;;;;;;;12.17;8.43;;;;;;;;;;6186578;23;20256;-67
2021/05/09 12:43:50;;;;;;;12.70;9.03;;;;;;;;;;6186382;23;20021;-67
2021/05/09 12:46:37;;;;;;;11.97;8.00;;;;;;;;;;6186702;23;20088;-67
2021/05/09 12:49:14;;;;;;;15.40;9.00;;;;;;;;;;6186678;23;20036;-67
2021/05/09 12:52:01;;;;;;;12.10;9.00;;;;;;;;;;6186435;23;20008;-66
2021/05/09 12:54:31;;;;;;;11.87;7.93;;;;;;;;;;6186418;23;20005;-67
2021/05/09 12:57:17;;;;;;;22.10;13.67;;;;;;;;;;6186338;23;20019;-67
2021/05/09 12:59:57;;;;;;;16.70;10.80;;;;;;;;;;6186392;23;20081;-67
2021/05/09 13:02:29;;;;;;;17.03;10.53;;;;;;;;;;6186407;23;20435;-67
2021/05/09 13:05:04;;;;;;;17.67;12.07;;;;;;;;;;6186251;23;20325;-66
2021/05/09 13:07:31;;;;;;;16.30;12.23;;;;;;;;;;6186256;23;20072;-66
2021/05/09 13:09:58;;;;;;;20.70;14.67;;;;;;;;;;6186433;23;20023;-66
2021/05/09 13:12:24;;;;;;;22.20;14.80;;;;;;;;;;6186504;23;20023;-66
2021/05/09 13:14:53;;;;;;;28.13;16.60;;;;;;;;;;6187213;22;20001;-66
2021/05/09 13:17:20;;;;;;;30.97;18.93;;;;;;;;;;6186624;23;20107;-67
2021/05/09 13:19:48;;;;;;;26.27;14.30;;;;;;;;;;6186303;23;20078;-67
2021/05/09 13:22:16;;;;;;;25.40;14.80;;;;;;;;;;6186302;23;20402;-67
2021/05/09 13:24:47;;;;;;;24.67;14.37;;;;;;;;;;6186003;23;20009;-67
2021/05/09 13:27:15;;;;;;;25.93;16.07;;;;;;;;;;6186416;23;20005;-67
2021/05/09 13:29:42;;;;;;;20.63;14.97;;;;;;;;;;6186098;23;20412;-67
2021/05/09 13:32:09;;;;;;;17.37;12.30;;;;;;;;;;6186099;23;20035;-67
2021/05/09 13:34:35;;;;;;;21.20;12.73;;;;;;;;;;6186136;23;20020;-67
2021/05/09 13:37:02;;;;;;;21.17;14.63;;;;;;;;;;6185975;23;20020;-67
2021/05/09 13:39:29;;;;;;;21.60;14.43;;;;;;;;;;6185998;23;20440;-67
2021/05/09 13:41:56;;;;;;;51.87;28.50;;;;;;;;;;6185883;23;20376;-67
2021/05/09 13:44:23;;;;;;;72.53;40.27;;;;;;;;;;6185845;23;20347;-67
2021/05/09 13:46:51;;;;;;;58.83;34.50;;;;;;;;;;6185871;23;20001;-67
2021/05/09 13:49:18;;;;;;;59.33;31.53;;;;;;;;;;6185878;23;20009;-67
2021/05/09 13:51:45;;;;;;;52.13;28.47;;;;;;;;;;6185842;23;20376;-67
2021/05/09 13:54:12;;;;;;;30.83;15.60;;;;;;;;;;6185772;23;20001;-67
2021/05/09 13:56:40;;;;;;;21.53;12.90;;;;;;;;;;6185910;23;20076;-67
2021/05/09 13:59:07;;;;;;;22.27;15.33;;;;;;;;;;6185816;23;20008;-67
2021/05/09 14:01:33;;;;;;;20.07;12.90;;;;;;;;;;6186182;23;20084;-67
2021/05/09 14:04:00;;;;;;;14.77;11.83;;;;;;;;;;6185643;23;20004;-67
2021/05/09 14:06:28;;;;;;;19.37;12.90;;;;;;;;;;6185816;23;20005;-67
2021/05/09 14:08:55;;;;;;;21.03;12.20;;;;;;;;;;6185846;23;19997;-67
2021/05/09 14:11:21;;;;;;;21.30;14.00;;;;;;;;;;6185758;23;20004;-67
2021/05/09 14:13:48;;;;;;;71.37;28.07;;;;;;;;;;6185689;23;20051;-67
2021/05/09 14:16:17;;;;;;;46.40;19.87;;;;;;;;;;6186884;23;20029;-67
2021/05/09 14:18:44;;;;;;;414.50;155.27;;;;;;;;;;6185738;23;20001;-67
2021/05/09 14:21:11;;;;;;;557.97;355.20;;;;;;;;;;6185547;23;20125;-68
2021/05/09 14:23:38;;;;;;;132.43;69.00;;;;;;;;;;6185804;23;19997;-67
2021/05/09 14:26:05;;;;;;;44.97;25.20;;;;;;;;;;6185683;23;20001;-67
2021/05/09 14:28:32;;;;;;;28.53;16.57;;;;;;;;;;6185633;23;20421;-68
2021/05/09 14:30:59;;;;;;;18.33;14.03;;;;;;;;;;6185516;23;20028;-68
2021/05/09 14:33:26;;;;;;;22.17;14.70;;;;;;;;;;6185397;23;20009;-67
2021/05/09 14:35:52;;;;;;;18.17;13.40;;;;;;;;;;6185630;23;20320;-68
2021/05/09 14:38:19;;;;;;;14.63;10.70;;;;;;;;;;6185190;23;20005;-67
2021/05/09 14:40:46;;;;;;;15.40;11.07;;;;;;;;;;6185283;23;20487;-68
2021/05/09 14:43:13;;;;;;;12.97;11.07;;;;;;;;;;6185460;23;20098;-68